Hlavní strana
METAR-TAF:

METAR-TAF

Letiště :

Nukus, Uzbekistán

zeměpisná šířka: 42-28-48N, zeměpisná délka: 059-37-48E, výška: 77 m

Aktuální stav počasí

Zpráva byla vytvořena před 46 minutami, v 20:30 UTC
Severní vítr 4 kt
Teplota -4°C
Vlhkost vzduchu 68%
Tlak 1023 hPa
Viditelnost 10 km a více
Žádná oblačnost pod 1500 m, nevyskytují se cumulonimby.

METAR: UTNN 192030Z 36004KT CAVOK M04/M09 Q1023 R33/CLRD60 NOSIG

Čas: 02:16 (21:16 UTC)

Předpověď počasí

Zpráva byla vytvořena před 4 hodinami a 16 minutami, v 17:00 UTC
Předpověď platná od 19 v 18 UTC do 20 v 18 UTC
Západoseverozápadní vítr 8 kt s nárazy do 18 kt
Viditelnost 10 km a více
Polojasno ve výšce 4000 ft
Oblačno až skoro zataženo ve výšce 10000 ft
Dočasný
od 20 v 08 UTC do 20 v 14 UTC
Severní vítr 12 kt s nárazy do 22 kt
Zataženo ve výšce 2000 ft
slabý déšť, sníh

TAF: UTNN 191700Z 1918/2018 30008G18KT 9999 SCT040 BKN100 TEMPO 2008/2014 01012G22KT -RA SN OVC020

Stav a předpovědi počasí z více než 4 000 letišť (zprávy METAR a TAF).

Červené a žluté tečky na mapě představují dostupné meteorologické stanice.

Když kurzor umístíte na tečku, zobrazí se název stanice.

Pak kliknutím zobrazíte stav a předpověď počasí.

Chcete-li změnit mapu, kliknutím na zelené tlačítko se znaménkem +mapu přiblížíte, kliknutím na zelené tlačítko se znaménkem – mapu oddálíte a kliknutím na zelené šipky přejdete na sousední mapy.


METAR-TAF: